Grenada, Mississippi
Current Conditions -  °F | °C
As of 12:15 PM on Friday 28 Nov 2014 (Local Time) from KGNF Reporting Station
Clear Clear  
Wind Chill: 52°   Ceiling: Unl
Heat Index: 52°   Visibility: 10mi
Dew Point: 28°   Wind: 7mph
Humidity: 41%   Direction: 170°S
Pressure: 30.33"   Gusts: NA
Location:  33.78°N, 89.81°W
Report Text: KGNF 281815Z AUTO 17006KT 10SM CLR 11/M02 A3033 RMK AO2
Loading
Personal Weather Stations






























Interactive Weather Map New forecast layout! Learn more

10-Day Weather Forecast

Advertisements
Track Severe Weather on mobile